Krakovo, Pollando

09:08 CET je la 16an de decembro 2018 (GMT +0100)
Dachy Tatarczuch | | Change Station

Elev 781 ft 50.59 °N, 20.16 °E | Updated 31 seconds ago

Nuboplena
Nuboplena
28.4 °F
Sentas kiel 28 °F
N
2.91
Vento Varianta Vento from NOr
Gusts 4.9 mej/h

hodiaŭ
High -- | Low -- °F
--% Ebla precip.
hieraŭ
High -- | Low -- °F
Precip. -- co
Aerpremo 30.06 co
Vidodistanco 4.3 mejloj
Nuboj Malmultaj 500 ft
Malpliparte nuba 700 ft
Pliparte nuba 2400 ft
Venta
kvazaŭtemperaturo
28 °F
Rosopunkto 16 °F
Humido 60%
Pluvokvanto 0.00 co
Neĝprofundo Not available.
7:33 AM 3:35 PM
Unua kvaronluno, 58% visible
METAR EPKK 160800Z 19002KT 7000 FEW005 SCT007 BKN024 M02/M03 Q1018 R25/51//95
Aerpremo 30.06 co
Vidodistanco 4.3 mejloj
Nuboj Malmultaj 500 ft
Malpliparte nuba 700 ft
Pliparte nuba 2400 ft
Venta
kvazaŭtemperaturo
28 °F
Rosopunkto 16 °F
Humido 60%
Pluvokvanto 0.00 co
Neĝprofundo Not available.
7:33 AM 3:35 PM
Unua kvaronluno, 58% visible
METAR EPKK 160800Z 19002KT 7000 FEW005 SCT007 BKN024 M02/M03 Q1018 R25/51//95

Get Severe Weather Alerts

Thanks for signing up!

Be on the lookout for a verification email in your inbox.

You'll start receiving the daily forecast at 6 AM.

×

10-Day Weather Forecast

×

Almanac

Astronomio

Dec. 16, 2018 Leviĝo Subiro
Aktuala tempo
Civila krepusko
Naŭtika krepusko
Astronomia krepusko
Luno
Daŭro de videbla lumo
Daŭro de tago
Tomorrow will be .
, % of the Moon is Illuminated

Hodiaŭaj ekstremaĵoj

Country Highs Country Lows

Community

WunderPhotos

Category 6

Welcome to Category 6. This is the collective home for Weather Underground's featured writeups by Dr. Jeff Masters (right), Bob Henson (left), Chris Burt, and other regular contributors.

Nearby

Aerkvalito

  Aerkvalito Aerkvalita indico Poluanto
Not available.

Neĝa profundeco

Station Depth Alteco

Earthquake Activity

Urbo Distance Mag. Time & Date
Minimum magnitude displayed is 2.5.

Coastal Water Temperatures

Loko Temperaturo

Stations

Najbaraj veter-stacioj

Loko de stacio Temp Venta
kvazaŭtemperaturo
Rosopunkto Humido Vento Precip. Elev Ĝisdatigita je Tipo